No particular awareness of the weather is required.    There are no Weather-warnings


Meteo18 Weather Cam more information Meteo18 Weather Cam


Thunder radar more information blitzortung!


Rain radar more information rain snow radar


Visit our other weather sites:

Template documentation
and downloads

And another site



Weather Underground History page Text

Daily Summary for December 5, 2017 Units:  Both    English   Metric
« Previous Day
Next Day »
Daily Weekly Monthly Yearly Custom
  High: Low: Average:
Temperature: 44.8 °F /  7.1 °C 33.1 °F /  0.6 °C 39.7 °F /  4.3 °C
Dew Point: 42.3 °F /  5.7 °C 32 °F /  0.0 °C 38.7 °F /  3.7 °C
Humidity: 98 % 85 % 96 %
Wind Speed: 5 mph /  8.0 km/h - 0.2 mph /  0.3 km/h
Wind Gust: 5 mph /  8.0 km/h - -
Wind:- - SE
Pressure: 30.7 in /  1039.5 hPa 30.6 in /  1037.8 hPa -
Precipitation: 0 in /  0.0 mm    
Historical Graphs
 
 
Tabular Data for December 5, 2017
Time Temperature Dew Point Pressure Wind Wind Speed Wind Gust Humidity Rainfall Rate (Hourly)
00:07 38.7 °F /  3.7 °C 38.1 °F /  3.4 °C 30.7 in /  1038.1 hPa Calm   2 mph /  3.2 km/h 98 % 0 in /  0.0 mm
00:12 38.7 °F /  3.7 °C 38.1 °F /  3.4 °C 30.7 in /  1038.1 hPa Calm   2 mph /  3.2 km/h 98 % 0 in /  0.0 mm
00:17 38.8 °F /  3.8 °C 38.3 °F /  3.5 °C 30.7 in /  1038.1 hPa Calm   2 mph /  3.2 km/h 98 % 0 in /  0.0 mm
00:22 38.8 °F /  3.8 °C 38.3 °F /  3.5 °C 30.7 in /  1038.1 hPa Calm   1 mph /  1.6 km/h 98 % 0 in /  0.0 mm
00:32 39 °F /  3.9 °C 38.5 °F /  3.6 °C 30.7 in /  1038.1 hPa Calm   1 mph /  1.6 km/h 98 % 0 in /  0.0 mm
00:42 39.2 °F /  4.0 °C 38.7 °F /  3.7 °C 30.7 in /  1038.1 hPa Calm   1 mph /  1.6 km/h 98 % 0 in /  0.0 mm
00:47 39.2 °F /  4.0 °C 38.7 °F /  3.7 °C 30.7 in /  1038.1 hPa Calm   1 mph /  1.6 km/h 98 % 0 in /  0.0 mm
00:52 39.2 °F /  4.0 °C 38.7 °F /  3.7 °C 30.7 in /  1038.1 hPa Calm     98 % 0 in /  0.0 mm
00:57 39.4 °F /  4.1 °C 38.8 °F /  3.8 °C 30.7 in /  1038.1 hPa Calm     98 % 0 in /  0.0 mm
01:02 39.6 °F /  4.2 °C 39 °F /  3.9 °C 30.7 in /  1038.1 hPa Calm     98 % 0 in /  0.0 mm
01:07 39.6 °F /  4.2 °C 39 °F /  3.9 °C 30.7 in /  1038.1 hPa Calm     98 % 0 in /  0.0 mm
01:12 39.6 °F /  4.2 °C 39 °F /  3.9 °C 30.7 in /  1038.1 hPa Calm     98 % 0 in /  0.0 mm
01:17 39.6 °F /  4.2 °C 39 °F /  3.9 °C 30.7 in /  1038.1 hPa Calm     98 % 0 in /  0.0 mm
01:22 39.6 °F /  4.2 °C 39 °F /  3.9 °C 30.7 in /  1038.1 hPa Calm     98 % 0 in /  0.0 mm
01:32 39.7 °F /  4.3 °C 39.2 °F /  4.0 °C 30.7 in /  1038.1 hPa Calm   2 mph /  3.2 km/h 98 % 0 in /  0.0 mm
01:42 39.9 °F /  4.4 °C 39.4 °F /  4.1 °C 30.7 in /  1038.1 hPa West 3 mph /  4.8 km/h 4 mph /  6.4 km/h 98 % 0 in /  0.0 mm
01:52 40.3 °F /  4.6 °C 39.7 °F /  4.3 °C 30.7 in /  1038.1 hPa Calm   4 mph /  6.4 km/h 98 % 0 in /  0.0 mm
01:57 40.1 °F /  4.5 °C 39.6 °F /  4.2 °C 30.7 in /  1038.1 hPa SSE 1 mph /  1.6 km/h 3 mph /  4.8 km/h 98 % 0 in /  0.0 mm
02:02 39.9 °F /  4.4 °C 39.4 °F /  4.1 °C 30.7 in /  1038.1 hPa Calm   3 mph /  4.8 km/h 98 % 0 in /  0.0 mm
02:07 39.9 °F /  4.4 °C 39.4 °F /  4.1 °C 30.7 in /  1038.1 hPa Calm   1 mph /  1.6 km/h 98 % 0 in /  0.0 mm
02:12 39.9 °F /  4.4 °C 39.4 °F /  4.1 °C 30.7 in /  1038.1 hPa Calm   1 mph /  1.6 km/h 98 % 0 in /  0.0 mm
02:17 40.1 °F /  4.5 °C 39.6 °F /  4.2 °C 30.7 in /  1038.1 hPa SSW 1 mph /  1.6 km/h 2 mph /  3.2 km/h 98 % 0 in /  0.0 mm
02:22 40.1 °F /  4.5 °C 39.6 °F /  4.2 °C 30.7 in /  1038.1 hPa Calm   2 mph /  3.2 km/h 98 % 0 in /  0.0 mm
02:27 40.1 °F /  4.5 °C 39.6 °F /  4.2 °C 30.7 in /  1038.1 hPa Calm   2 mph /  3.2 km/h 98 % 0 in /  0.0 mm
02:32 40.3 °F /  4.6 °C 39.7 °F /  4.3 °C 30.7 in /  1038.1 hPa Calm   2 mph /  3.2 km/h 98 % 0 in /  0.0 mm
02:37 40.3 °F /  4.6 °C 39.7 °F /  4.3 °C 30.7 in /  1038.1 hPa Calm   1 mph /  1.6 km/h 98 % 0 in /  0.0 mm
02:47 40.5 °F /  4.7 °C 39.9 °F /  4.4 °C 30.7 in /  1038.1 hPa SSW 1 mph /  1.6 km/h 2 mph /  3.2 km/h 98 % 0 in /  0.0 mm
02:52 40.5 °F /  4.7 °C 39.9 °F /  4.4 °C 30.7 in /  1038.1 hPa West 1 mph /  1.6 km/h 2 mph /  3.2 km/h 98 % 0 in /  0.0 mm
02:57 40.5 °F /  4.7 °C 39.9 °F /  4.4 °C 30.7 in /  1038.1 hPa Calm   2 mph /  3.2 km/h 98 % 0 in /  0.0 mm
03:02 40.5 °F /  4.7 °C 39.9 °F /  4.4 °C 30.7 in /  1038.1 hPa Calm   2 mph /  3.2 km/h 98 % 0 in /  0.0 mm
03:07 40.3 °F /  4.6 °C 39.7 °F /  4.3 °C 30.7 in /  1038.1 hPa Calm   1 mph /  1.6 km/h 98 % 0 in /  0.0 mm
03:12 40.3 °F /  4.6 °C 39.7 °F /  4.3 °C 30.7 in /  1038.1 hPa WSW 2 mph /  3.2 km/h 2 mph /  3.2 km/h 98 % 0 in /  0.0 mm
03:22 40.3 °F /  4.6 °C 39.7 °F /  4.3 °C 30.7 in /  1038.1 hPa Calm   2 mph /  3.2 km/h 98 % 0 in /  0.0 mm
03:27 40.3 °F /  4.6 °C 39.7 °F /  4.3 °C 30.7 in /  1038.1 hPa Calm   2 mph /  3.2 km/h 98 % 0 in /  0.0 mm
03:32 40.3 °F /  4.6 °C 39.7 °F /  4.3 °C 30.7 in /  1038.1 hPa Calm   1 mph /  1.6 km/h 98 % 0 in /  0.0 mm
03:37 40.1 °F /  4.5 °C 39.6 °F /  4.2 °C 30.7 in /  1038.1 hPa Calm   1 mph /  1.6 km/h 98 % 0 in /  0.0 mm
03:42 40.1 °F /  4.5 °C 39.6 °F /  4.2 °C 30.7 in /  1038.1 hPa WSW 1 mph /  1.6 km/h 1 mph /  1.6 km/h 98 % 0 in /  0.0 mm
03:47 40.3 °F /  4.6 °C 39.7 °F /  4.3 °C 30.7 in /  1038.1 hPa Calm   2 mph /  3.2 km/h 98 % 0 in /  0.0 mm
03:52 40.3 °F /  4.6 °C 39.7 °F /  4.3 °C 30.7 in /  1038.1 hPa WSW 2 mph /  3.2 km/h 2 mph /  3.2 km/h 98 % 0 in /  0.0 mm
03:57 40.3 °F /  4.6 °C 39.7 °F /  4.3 °C 30.7 in /  1038.1 hPa WSW 1 mph /  1.6 km/h 2 mph /  3.2 km/h 98 % 0 in /  0.0 mm
04:02 40.3 °F /  4.6 °C 39.7 °F /  4.3 °C 30.7 in /  1038.1 hPa Calm   3 mph /  4.8 km/h 98 % 0 in /  0.0 mm
04:07 40.3 °F /  4.6 °C 39.7 °F /  4.3 °C 30.7 in /  1038.1 hPa West 1 mph /  1.6 km/h 3 mph /  4.8 km/h 98 % 0 in /  0.0 mm
04:12 40.3 °F /  4.6 °C 39.7 °F /  4.3 °C 30.7 in /  1038.1 hPa Calm   3 mph /  4.8 km/h 98 % 0 in /  0.0 mm
04:22 39.9 °F /  4.4 °C 39.4 °F /  4.1 °C 30.7 in /  1038.1 hPa SSW 3 mph /  4.8 km/h 3 mph /  4.8 km/h 98 % 0 in /  0.0 mm
04:27 39.9 °F /  4.4 °C 39.4 °F /  4.1 °C 30.7 in /  1038.1 hPa Calm   3 mph /  4.8 km/h 98 % 0 in /  0.0 mm
04:32 39.9 °F /  4.4 °C 39.4 °F /  4.1 °C 30.7 in /  1038.1 hPa Calm   3 mph /  4.8 km/h 98 % 0 in /  0.0 mm
04:37 39.7 °F /  4.3 °C 39.2 °F /  4.0 °C 30.7 in /  1038.1 hPa Calm   3 mph /  4.8 km/h 98 % 0 in /  0.0 mm
04:42 39.7 °F /  4.3 °C 39.2 °F /  4.0 °C 30.6 in /  1037.8 hPa Calm   2 mph /  3.2 km/h 98 % 0 in /  0.0 mm
04:47 39.7 °F /  4.3 °C 39.2 °F /  4.0 °C 30.6 in /  1037.8 hPa Calm     98 % 0 in /  0.0 mm
04:52 39.6 °F /  4.2 °C 39 °F /  3.9 °C 30.6 in /  1037.8 hPa Calm     98 % 0 in /  0.0 mm
05:02 39.6 °F /  4.2 °C 39 °F /  3.9 °C 30.6 in /  1037.8 hPa Calm     98 % 0 in /  0.0 mm
05:12 39.4 °F /  4.1 °C 38.8 °F /  3.8 °C 30.6 in /  1037.8 hPa Calm     98 % 0 in /  0.0 mm
05:17 39.6 °F /  4.2 °C 39 °F /  3.9 °C 30.6 in /  1037.8 hPa Calm     98 % 0 in /  0.0 mm
05:22 39.4 °F /  4.1 °C 38.8 °F /  3.8 °C 30.6 in /  1037.8 hPa Calm     98 % 0 in /  0.0 mm
05:32 39 °F /  3.9 °C 38.5 °F /  3.6 °C 30.6 in /  1037.8 hPa Calm     98 % 0 in /  0.0 mm
05:37 38.8 °F /  3.8 °C 38.3 °F /  3.5 °C 30.6 in /  1037.8 hPa Calm     98 % 0 in /  0.0 mm
05:42 38.8 °F /  3.8 °C 38.3 °F /  3.5 °C 30.6 in /  1037.8 hPa Calm     98 % 0 in /  0.0 mm
05:47 38.7 °F /  3.7 °C 38.1 °F /  3.4 °C 30.6 in /  1037.8 hPa Calm     98 % 0 in /  0.0 mm
05:52 38.7 °F /  3.7 °C 38.1 °F /  3.4 °C 30.6 in /  1037.8 hPa Calm     98 % 0 in /  0.0 mm
05:57 38.5 °F /  3.6 °C 37.9 °F /  3.3 °C 30.6 in /  1037.8 hPa Calm     98 % 0 in /  0.0 mm
06:02 38.5 °F /  3.6 °C 37.9 °F /  3.3 °C 30.7 in /  1038.1 hPa Calm     98 % 0 in /  0.0 mm
06:12 38.1 °F /  3.4 °C 37.6 °F /  3.1 °C 30.7 in /  1038.1 hPa Calm     98 % 0 in /  0.0 mm
06:17 38.1 °F /  3.4 °C 37.6 °F /  3.1 °C 30.7 in /  1038.1 hPa Calm     98 % 0 in /  0.0 mm
06:22 37.9 °F /  3.3 °C 37.4 °F /  3.0 °C 30.7 in /  1038.1 hPa Calm     98 % 0 in /  0.0 mm
06:32 37.8 °F /  3.2 °C 37.2 °F /  2.9 °C 30.7 in /  1038.1 hPa Calm     98 % 0 in /  0.0 mm
06:37 37.8 °F /  3.2 °C 37.2 °F /  2.9 °C 30.7 in /  1038.1 hPa Calm     98 % 0 in /  0.0 mm
06:42 37.8 °F /  3.2 °C 37.2 °F /  2.9 °C 30.7 in /  1038.1 hPa Calm     98 % 0 in /  0.0 mm
06:47 37.6 °F /  3.1 °C 37 °F /  2.8 °C 30.7 in /  1038.1 hPa Calm     98 % 0 in /  0.0 mm
06:52 37.6 °F /  3.1 °C 37 °F /  2.8 °C 30.7 in /  1038.1 hPa Calm     98 % 0 in /  0.0 mm
07:02 37.6 °F /  3.1 °C 37 °F /  2.8 °C 30.7 in /  1038.5 hPa Calm     98 % 0 in /  0.0 mm
07:12 37.8 °F /  3.2 °C 37.2 °F /  2.9 °C 30.7 in /  1038.1 hPa Calm     98 % 0 in /  0.0 mm
07:17 37.9 °F /  3.3 °C 37.4 °F /  3.0 °C 30.7 in /  1038.1 hPa Calm     98 % 0 in /  0.0 mm
07:27 38.1 °F /  3.4 °C 37.6 °F /  3.1 °C 30.7 in /  1038.5 hPa Calm     98 % 0 in /  0.0 mm
07:32 38.5 °F /  3.6 °C 37.9 °F /  3.3 °C 30.7 in /  1038.5 hPa Calm     98 % 0 in /  0.0 mm
07:37 38.8 °F /  3.8 °C 38.3 °F /  3.5 °C 30.7 in /  1038.5 hPa Calm     98 % 0 in /  0.0 mm
07:42 38.8 °F /  3.8 °C 38.3 °F /  3.5 °C 30.7 in /  1038.5 hPa Calm     98 % 0 in /  0.0 mm
07:47 39 °F /  3.9 °C 38.5 °F /  3.6 °C 30.7 in /  1038.5 hPa Calm     98 % 0 in /  0.0 mm
07:57 38.7 °F /  3.7 °C 38.1 °F /  3.4 °C 30.7 in /  1038.5 hPa Calm     98 % 0 in /  0.0 mm
08:02 38.7 °F /  3.7 °C 38.1 °F /  3.4 °C 30.7 in /  1038.5 hPa Calm     98 % 0 in /  0.0 mm
08:12 38.5 °F /  3.6 °C 37.9 °F /  3.3 °C 30.7 in /  1038.5 hPa Calm     98 % 0 in /  0.0 mm
08:17 38.3 °F /  3.5 °C 37.8 °F /  3.2 °C 30.7 in /  1038.8 hPa Calm     98 % 0 in /  0.0 mm
08:22 38.3 °F /  3.5 °C 37.8 °F /  3.2 °C 30.7 in /  1038.8 hPa Calm     98 % 0 in /  0.0 mm
08:32 38.3 °F /  3.5 °C 37.8 °F /  3.2 °C 30.7 in /  1038.8 hPa Calm     98 % 0 in /  0.0 mm
08:37 38.3 °F /  3.5 °C 37.8 °F /  3.2 °C 30.7 in /  1038.8 hPa Calm     98 % 0 in /  0.0 mm
08:42 38.5 °F /  3.6 °C 37.9 °F /  3.3 °C 30.7 in /  1038.8 hPa Calm     98 % 0 in /  0.0 mm
08:52 38.5 °F /  3.6 °C 37.9 °F /  3.3 °C 30.7 in /  1039.2 hPa Calm     98 % 0 in /  0.0 mm
08:57 38.7 °F /  3.7 °C 38.1 °F /  3.4 °C 30.7 in /  1039.2 hPa Calm     98 % 0 in /  0.0 mm
09:02 38.7 °F /  3.7 °C 38.1 °F /  3.4 °C 30.7 in /  1039.2 hPa Calm     98 % 0 in /  0.0 mm
09:12 38.8 °F /  3.8 °C 38.3 °F /  3.5 °C 30.7 in /  1039.2 hPa Calm     98 % 0 in /  0.0 mm
09:22 39 °F /  3.9 °C 38.5 °F /  3.6 °C 30.7 in /  1039.2 hPa Calm     98 % 0 in /  0.0 mm
09:32 39 °F /  3.9 °C 38.5 °F /  3.6 °C 30.7 in /  1039.2 hPa Calm     98 % 0 in /  0.0 mm
09:42 39.2 °F /  4.0 °C 38.7 °F /  3.7 °C 30.7 in /  1039.2 hPa Calm     98 % 0 in /  0.0 mm
09:47 39.4 °F /  4.1 °C 38.8 °F /  3.8 °C 30.7 in /  1039.2 hPa Calm     98 % 0 in /  0.0 mm
09:52 39.4 °F /  4.1 °C 38.8 °F /  3.8 °C 30.7 in /  1039.2 hPa Calm     98 % 0 in /  0.0 mm
10:02 39.6 °F /  4.2 °C 39 °F /  3.9 °C 30.7 in /  1039.2 hPa Calm     98 % 0 in /  0.0 mm
10:12 39.7 °F /  4.3 °C 39.2 °F /  4.0 °C 30.7 in /  1039.2 hPa Calm     98 % 0 in /  0.0 mm
10:17 39.7 °F /  4.3 °C 39.2 °F /  4.0 °C 30.7 in /  1039.2 hPa Calm     98 % 0 in /  0.0 mm
10:22 39.9 °F /  4.4 °C 39.4 °F /  4.1 °C 30.7 in /  1039.2 hPa Calm     98 % 0 in /  0.0 mm
10:32 40.1 °F /  4.5 °C 39.6 °F /  4.2 °C 30.7 in /  1039.2 hPa Calm     98 % 0 in /  0.0 mm
10:42 40.5 °F /  4.7 °C 39.9 °F /  4.4 °C 30.7 in /  1039.2 hPa Calm     98 % 0 in /  0.0 mm
10:47 40.5 °F /  4.7 °C 39.9 °F /  4.4 °C 30.7 in /  1039.2 hPa Calm     98 % 0 in /  0.0 mm
10:52 40.6 °F /  4.8 °C 40.1 °F /  4.5 °C 30.7 in /  1039.5 hPa Calm     98 % 0 in /  0.0 mm
10:57 40.8 °F /  4.9 °C 40.3 °F /  4.6 °C 30.7 in /  1039.5 hPa Calm     98 % 0 in /  0.0 mm
11:02 41.2 °F /  5.1 °C 40.6 °F /  4.8 °C 30.7 in /  1039.5 hPa Calm     98 % 0 in /  0.0 mm
11:12 41.2 °F /  5.1 °C 40.6 °F /  4.8 °C 30.7 in /  1039.2 hPa Calm     98 % 0 in /  0.0 mm
11:17 41.2 °F /  5.1 °C 40.6 °F /  4.8 °C 30.7 in /  1039.5 hPa Calm     98 % 0 in /  0.0 mm
11:22 41.4 °F /  5.2 °C 40.8 °F /  4.9 °C 30.7 in /  1039.2 hPa Calm     98 % 0 in /  0.0 mm
11:32 41.5 °F /  5.3 °C 41 °F /  5.0 °C 30.7 in /  1039.2 hPa Calm     98 % 0 in /  0.0 mm
11:37 41.4 °F /  5.2 °C 40.8 °F /  4.9 °C 30.7 in /  1039.2 hPa Calm     98 % 0 in /  0.0 mm
11:42 41.5 °F /  5.3 °C 41 °F /  5.0 °C 30.7 in /  1039.2 hPa Calm     98 % 0 in /  0.0 mm
11:47 41.7 °F /  5.4 °C 41.2 °F /  5.1 °C 30.7 in /  1039.2 hPa Calm     98 % 0 in /  0.0 mm
11:52 41.7 °F /  5.4 °C 41.2 °F /  5.1 °C 30.7 in /  1039.2 hPa Calm     98 % 0 in /  0.0 mm
11:57 41.7 °F /  5.4 °C 41.2 °F /  5.1 °C 30.7 in /  1039.2 hPa Calm     98 % 0 in /  0.0 mm
12:02 41.5 °F /  5.3 °C 41 °F /  5.0 °C 30.7 in /  1039.2 hPa Calm     98 % 0 in /  0.0 mm
12:12 42.3 °F /  5.7 °C 41.7 °F /  5.4 °C 30.7 in /  1039.2 hPa Calm     98 % 0 in /  0.0 mm
12:17 42.1 °F /  5.6 °C 41.5 °F /  5.3 °C 30.7 in /  1039.2 hPa Calm     98 % 0 in /  0.0 mm
12:22 41.7 °F /  5.4 °C 41.2 °F /  5.1 °C 30.7 in /  1038.8 hPa Calm     98 % 0 in /  0.0 mm
12:27 41.9 °F /  5.5 °C 41.4 °F /  5.2 °C 30.7 in /  1039.2 hPa Calm     98 % 0 in /  0.0 mm
12:32 42.1 °F /  5.6 °C 41.5 °F /  5.3 °C 30.7 in /  1038.8 hPa NE 1 mph /  1.6 km/h   98 % 0 in /  0.0 mm
12:42 42.4 °F /  5.8 °C 41.9 °F /  5.5 °C 30.7 in /  1038.8 hPa Calm   2 mph /  3.2 km/h 98 % 0 in /  0.0 mm
12:52 42.3 °F /  5.7 °C 41.5 °F /  5.3 °C 30.7 in /  1038.8 hPa ENE 2 mph /  3.2 km/h 3 mph /  4.8 km/h 97 % 0 in /  0.0 mm
12:57 42.3 °F /  5.7 °C 41.5 °F /  5.3 °C 30.7 in /  1038.8 hPa East 1 mph /  1.6 km/h 4 mph /  6.4 km/h 97 % 0 in /  0.0 mm
13:02 42.1 °F /  5.6 °C 41.4 °F /  5.2 °C 30.7 in /  1038.8 hPa ENE 1 mph /  1.6 km/h 4 mph /  6.4 km/h 97 % 0 in /  0.0 mm
13:12 42.3 °F /  5.7 °C 41.5 °F /  5.3 °C 30.7 in /  1038.8 hPa Calm   4 mph /  6.4 km/h 97 % 0 in /  0.0 mm
13:17 42.4 °F /  5.8 °C 41.7 °F /  5.4 °C 30.7 in /  1038.8 hPa Calm   3 mph /  4.8 km/h 97 % 0 in /  0.0 mm
13:22 42.4 °F /  5.8 °C 41.7 °F /  5.4 °C 30.7 in /  1038.8 hPa Calm   2 mph /  3.2 km/h 97 % 0 in /  0.0 mm
13:27 42.6 °F /  5.9 °C 41.9 °F /  5.5 °C 30.7 in /  1038.8 hPa Calm   2 mph /  3.2 km/h 97 % 0 in /  0.0 mm
13:32 42.6 °F /  5.9 °C 41.9 °F /  5.5 °C 30.7 in /  1038.8 hPa East 1 mph /  1.6 km/h 1 mph /  1.6 km/h 97 % 0 in /  0.0 mm
13:37 42.6 °F /  5.9 °C 41.9 °F /  5.5 °C 30.7 in /  1038.5 hPa Calm   2 mph /  3.2 km/h 97 % 0 in /  0.0 mm
13:42 43 °F /  6.1 °C 42.3 °F /  5.7 °C 30.7 in /  1038.5 hPa Calm   2 mph /  3.2 km/h 97 % 0 in /  0.0 mm
13:52 43.2 °F /  6.2 °C 42.1 °F /  5.6 °C 30.7 in /  1038.5 hPa East 2 mph /  3.2 km/h 2 mph /  3.2 km/h 96 % 0 in /  0.0 mm
13:57 43.2 °F /  6.2 °C 42.1 °F /  5.6 °C 30.7 in /  1038.5 hPa NE 1 mph /  1.6 km/h 3 mph /  4.8 km/h 96 % 0 in /  0.0 mm
14:02 43.3 °F /  6.3 °C 42.3 °F /  5.7 °C 30.7 in /  1038.5 hPa Calm   3 mph /  4.8 km/h 96 % 0 in /  0.0 mm
14:12 43.5 °F /  6.4 °C 41.9 °F /  5.5 °C 30.7 in /  1038.5 hPa Calm   3 mph /  4.8 km/h 94 % 0 in /  0.0 mm
14:22 43.9 °F /  6.6 °C 41.7 °F /  5.4 °C 30.7 in /  1038.1 hPa Calm   3 mph /  4.8 km/h 92 % 0 in /  0.0 mm
14:27 43.9 °F /  6.6 °C 41.4 °F /  5.2 °C 30.7 in /  1038.1 hPa East 1 mph /  1.6 km/h 3 mph /  4.8 km/h 91 % 0 in /  0.0 mm
14:32 43.9 °F /  6.6 °C 41.2 °F /  5.1 °C 30.7 in /  1038.1 hPa East 1 mph /  1.6 km/h 4 mph /  6.4 km/h 90 % 0 in /  0.0 mm
14:37 43.7 °F /  6.5 °C 41 °F /  5.0 °C 30.7 in /  1038.1 hPa Calm   4 mph /  6.4 km/h 90 % 0 in /  0.0 mm
14:42 43.9 °F /  6.6 °C 41.2 °F /  5.1 °C 30.7 in /  1038.1 hPa East 1 mph /  1.6 km/h 4 mph /  6.4 km/h 90 % 0 in /  0.0 mm
14:47 43.9 °F /  6.6 °C 40.8 °F /  4.9 °C 30.7 in /  1038.1 hPa ENE 1 mph /  1.6 km/h 3 mph /  4.8 km/h 89 % 0 in /  0.0 mm
14:52 44.1 °F /  6.7 °C 41 °F /  5.0 °C 30.7 in /  1038.1 hPa ENE 2 mph /  3.2 km/h 3 mph /  4.8 km/h 89 % 0 in /  0.0 mm
14:57 44.1 °F /  6.7 °C 40.8 °F /  4.9 °C 30.7 in /  1038.1 hPa ENE 2 mph /  3.2 km/h 4 mph /  6.4 km/h 88 % 0 in /  0.0 mm
15:02 44.1 °F /  6.7 °C 40.8 °F /  4.9 °C 30.7 in /  1038.1 hPa ENE 5 mph /  8.0 km/h 5 mph /  8.0 km/h 88 % 0 in /  0.0 mm
15:07 44.1 °F /  6.7 °C 40.8 °F /  4.9 °C 30.7 in /  1038.1 hPa ENE 3 mph /  4.8 km/h 5 mph /  8.0 km/h 88 % 0 in /  0.0 mm
15:12 44.1 °F /  6.7 °C 40.5 °F /  4.7 °C 30.7 in /  1038.1 hPa East 2 mph /  3.2 km/h 5 mph /  8.0 km/h 87 % 0 in /  0.0 mm
15:17 44.1 °F /  6.7 °C 40.8 °F /  4.9 °C 30.7 in /  1038.1 hPa Calm   5 mph /  8.0 km/h 88 % 0 in /  0.0 mm
15:22 44.1 °F /  6.7 °C 40.5 °F /  4.7 °C 30.7 in /  1038.1 hPa Calm   4 mph /  6.4 km/h 87 % 0 in /  0.0 mm
15:27 44.1 °F /  6.7 °C 40.5 °F /  4.7 °C 30.7 in /  1038.1 hPa South 1 mph /  1.6 km/h 3 mph /  4.8 km/h 87 % 0 in /  0.0 mm
15:32 44.1 °F /  6.7 °C 40.5 °F /  4.7 °C 30.7 in /  1038.1 hPa Calm   3 mph /  4.8 km/h 87 % 0 in /  0.0 mm
15:37 44.1 °F /  6.7 °C 40.8 °F /  4.9 °C 30.7 in /  1038.1 hPa Calm   3 mph /  4.8 km/h 88 % 0 in /  0.0 mm
15:42 44.1 °F /  6.7 °C 40.5 °F /  4.7 °C 30.7 in /  1038.1 hPa Calm   3 mph /  4.8 km/h 87 % 0 in /  0.0 mm
15:47 43.9 °F /  6.6 °C 40.3 °F /  4.6 °C 30.7 in /  1038.1 hPa Calm   2 mph /  3.2 km/h 87 % 0 in /  0.0 mm
15:52 43.9 °F /  6.6 °C 40.3 °F /  4.6 °C 30.7 in /  1038.1 hPa Calm   2 mph /  3.2 km/h 87 % 0 in /  0.0 mm
16:02 44.2 °F /  6.8 °C 41 °F /  5.0 °C 30.7 in /  1038.1 hPa Calm     88 % 0 in /  0.0 mm
16:07 44.8 °F /  7.1 °C 40.8 °F /  4.9 °C 30.7 in /  1038.1 hPa Calm     86 % 0 in /  0.0 mm
16:12 44.4 °F /  6.9 °C 40.3 °F /  4.6 °C 30.7 in /  1038.1 hPa Calm     85 % 0 in /  0.0 mm
16:17 44.1 °F /  6.7 °C 39.9 °F /  4.4 °C 30.7 in /  1038.1 hPa Calm     85 % 0 in /  0.0 mm
16:22 43.5 °F /  6.4 °C 39.6 °F /  4.2 °C 30.7 in /  1038.1 hPa Calm     86 % 0 in /  0.0 mm
16:27 43 °F /  6.1 °C 39.7 °F /  4.3 °C 30.7 in /  1038.1 hPa Calm     88 % 0 in /  0.0 mm
16:37 42.4 °F /  5.8 °C 39.7 °F /  4.3 °C 30.7 in /  1038.1 hPa Calm   1 mph /  1.6 km/h 90 % 0 in /  0.0 mm
16:42 42.3 °F /  5.7 °C 39.6 °F /  4.2 °C 30.7 in /  1038.1 hPa Calm   1 mph /  1.6 km/h 90 % 0 in /  0.0 mm
16:47 41.9 °F /  5.5 °C 39.2 °F /  4.0 °C 30.7 in /  1038.1 hPa Calm   1 mph /  1.6 km/h 90 % 0 in /  0.0 mm
16:52 41.7 °F /  5.4 °C 39.2 °F /  4.0 °C 30.7 in /  1038.1 hPa Calm   1 mph /  1.6 km/h 91 % 0 in /  0.0 mm
17:02 41.7 °F /  5.4 °C 39 °F /  3.9 °C 30.7 in /  1038.1 hPa Calm     90 % 0 in /  0.0 mm
17:12 41.2 °F /  5.1 °C 38.5 °F /  3.6 °C 30.7 in /  1038.1 hPa Calm   1 mph /  1.6 km/h 90 % 0 in /  0.0 mm
17:17 40.8 °F /  4.9 °C 38.7 °F /  3.7 °C 30.7 in /  1038.1 hPa Calm   1 mph /  1.6 km/h 92 % 0 in /  0.0 mm
17:22 40.6 °F /  4.8 °C 38.5 °F /  3.6 °C 30.7 in /  1038.5 hPa Calm   1 mph /  1.6 km/h 92 % 0 in /  0.0 mm
17:32 40.1 °F /  4.5 °C 38.3 °F /  3.5 °C 30.7 in /  1038.5 hPa Calm   1 mph /  1.6 km/h 93 % 0 in /  0.0 mm
17:37 40.1 °F /  4.5 °C 38.3 °F /  3.5 °C 30.7 in /  1038.1 hPa Calm   1 mph /  1.6 km/h 93 % 0 in /  0.0 mm
17:42 40.3 °F /  4.6 °C 38.7 °F /  3.7 °C 30.7 in /  1038.1 hPa Calm   1 mph /  1.6 km/h 94 % 0 in /  0.0 mm
17:47 40.1 °F /  4.5 °C 38.3 °F /  3.5 °C 30.7 in /  1038.1 hPa Calm   1 mph /  1.6 km/h 93 % 0 in /  0.0 mm
17:52 39.9 °F /  4.4 °C 38.1 °F /  3.4 °C 30.7 in /  1038.1 hPa Calm   1 mph /  1.6 km/h 93 % 0 in /  0.0 mm
17:57 39.9 °F /  4.4 °C 38.1 °F /  3.4 °C 30.7 in /  1038.1 hPa Calm   1 mph /  1.6 km/h 93 % 0 in /  0.0 mm
18:02 39.9 °F /  4.4 °C 38.3 °F /  3.5 °C 30.7 in /  1038.1 hPa Calm   1 mph /  1.6 km/h 94 % 0 in /  0.0 mm
18:07 39.7 °F /  4.3 °C 38.1 °F /  3.4 °C 30.7 in /  1038.1 hPa Calm   1 mph /  1.6 km/h 94 % 0 in /  0.0 mm
18:17 39.4 °F /  4.1 °C 37.8 °F /  3.2 °C 30.7 in /  1038.1 hPa Calm   1 mph /  1.6 km/h 94 % 0 in /  0.0 mm
18:22 39 °F /  3.9 °C 37.4 °F /  3.0 °C 30.7 in /  1038.1 hPa Calm   1 mph /  1.6 km/h 94 % 0 in /  0.0 mm
18:32 39.2 °F /  4.0 °C 37.9 °F /  3.3 °C 30.7 in /  1038.1 hPa Calm   1 mph /  1.6 km/h 95 % 0 in /  0.0 mm
18:37 39.2 °F /  4.0 °C 37.9 °F /  3.3 °C 30.7 in /  1038.1 hPa Calm   1 mph /  1.6 km/h 95 % 0 in /  0.0 mm
18:42 39.4 °F /  4.1 °C 38.1 °F /  3.4 °C 30.7 in /  1038.1 hPa SE 3 mph /  4.8 km/h 3 mph /  4.8 km/h 95 % 0 in /  0.0 mm
18:47 38.5 °F /  3.6 °C 36.9 °F /  2.7 °C 30.7 in /  1038.1 hPa Calm   3 mph /  4.8 km/h 94 % 0 in /  0.0 mm
18:52 38.1 °F /  3.4 °C 36.5 °F /  2.5 °C 30.7 in /  1038.1 hPa Calm   3 mph /  4.8 km/h 94 % 0 in /  0.0 mm
18:57 38.1 °F /  3.4 °C 36.9 °F /  2.7 °C 30.7 in /  1038.1 hPa Calm   3 mph /  4.8 km/h 95 % 0 in /  0.0 mm
19:02 38.1 °F /  3.4 °C 36.9 °F /  2.7 °C 30.7 in /  1038.1 hPa Calm   2 mph /  3.2 km/h 95 % 0 in /  0.0 mm
19:07 38.3 °F /  3.5 °C 37 °F /  2.8 °C 30.7 in /  1038.1 hPa Calm   1 mph /  1.6 km/h 95 % 0 in /  0.0 mm
19:12 38.1 °F /  3.4 °C 36.9 °F /  2.7 °C 30.7 in /  1038.1 hPa Calm   1 mph /  1.6 km/h 95 % 0 in /  0.0 mm
19:17 38.1 °F /  3.4 °C 36.9 °F /  2.7 °C 30.7 in /  1038.1 hPa SE 1 mph /  1.6 km/h 1 mph /  1.6 km/h 95 % 0 in /  0.0 mm
19:22 37.9 °F /  3.3 °C 36.7 °F /  2.6 °C 30.7 in /  1038.1 hPa SE 1 mph /  1.6 km/h 1 mph /  1.6 km/h 95 % 0 in /  0.0 mm
19:27 37.9 °F /  3.3 °C 36.7 °F /  2.6 °C 30.7 in /  1038.1 hPa Calm   1 mph /  1.6 km/h 95 % 0 in /  0.0 mm
19:32 38.1 °F /  3.4 °C 37 °F /  2.8 °C 30.7 in /  1038.1 hPa Calm   1 mph /  1.6 km/h 96 % 0 in /  0.0 mm
19:37 38.1 °F /  3.4 °C 37 °F /  2.8 °C 30.7 in /  1038.1 hPa Calm   1 mph /  1.6 km/h 96 % 0 in /  0.0 mm
19:42 38.3 °F /  3.5 °C 37.2 °F /  2.9 °C 30.7 in /  1038.1 hPa Calm     96 % 0 in /  0.0 mm
19:47 38.3 °F /  3.5 °C 37.2 °F /  2.9 °C 30.7 in /  1038.1 hPa Calm     96 % 0 in /  0.0 mm
19:52 38.3 °F /  3.5 °C 37.2 °F /  2.9 °C 30.7 in /  1038.1 hPa Calm   1 mph /  1.6 km/h 96 % 0 in /  0.0 mm
19:57 38.5 °F /  3.6 °C 37.4 °F /  3.0 °C 30.7 in /  1038.1 hPa Calm   1 mph /  1.6 km/h 96 % 0 in /  0.0 mm
20:02 38.3 °F /  3.5 °C 37.2 °F /  2.9 °C 30.7 in /  1038.1 hPa Calm   1 mph /  1.6 km/h 96 % 0 in /  0.0 mm
20:07 38.1 °F /  3.4 °C 37 °F /  2.8 °C 30.7 in /  1038.1 hPa Calm   1 mph /  1.6 km/h 96 % 0 in /  0.0 mm
20:12 38.1 °F /  3.4 °C 37 °F /  2.8 °C 30.7 in /  1038.1 hPa Calm   1 mph /  1.6 km/h 96 % 0 in /  0.0 mm
20:17 38.1 °F /  3.4 °C 37 °F /  2.8 °C 30.7 in /  1038.1 hPa Calm     96 % 0 in /  0.0 mm
20:22 38.3 °F /  3.5 °C 37.2 °F /  2.9 °C 30.7 in /  1038.1 hPa Calm   1 mph /  1.6 km/h 96 % 0 in /  0.0 mm
20:27 38.1 °F /  3.4 °C 37 °F /  2.8 °C 30.7 in /  1038.1 hPa Calm   1 mph /  1.6 km/h 96 % 0 in /  0.0 mm
20:37 38.3 °F /  3.5 °C 37.2 °F /  2.9 °C 30.7 in /  1038.1 hPa Calm   1 mph /  1.6 km/h 96 % 0 in /  0.0 mm
20:42 38.1 °F /  3.4 °C 37 °F /  2.8 °C 30.7 in /  1038.1 hPa Calm   1 mph /  1.6 km/h 96 % 0 in /  0.0 mm
20:47 38.1 °F /  3.4 °C 37 °F /  2.8 °C 30.7 in /  1038.1 hPa Calm   1 mph /  1.6 km/h 96 % 0 in /  0.0 mm
20:57 37.9 °F /  3.3 °C 36.9 °F /  2.7 °C 30.7 in /  1038.1 hPa Calm   1 mph /  1.6 km/h 96 % 0 in /  0.0 mm
21:02 37.9 °F /  3.3 °C 36.9 °F /  2.7 °C 30.7 in /  1038.1 hPa Calm   1 mph /  1.6 km/h 96 % 0 in /  0.0 mm
21:12 37.9 °F /  3.3 °C 36.9 °F /  2.7 °C 30.7 in /  1038.1 hPa Calm   1 mph /  1.6 km/h 96 % 0 in /  0.0 mm
21:17 37.8 °F /  3.2 °C 36.7 °F /  2.6 °C 30.7 in /  1038.1 hPa Calm   1 mph /  1.6 km/h 96 % 0 in /  0.0 mm
21:22 37.6 °F /  3.1 °C 36.5 °F /  2.5 °C 30.7 in /  1038.5 hPa Calm   1 mph /  1.6 km/h 96 % 0 in /  0.0 mm
21:27 37.6 °F /  3.1 °C 36.5 °F /  2.5 °C 30.7 in /  1038.5 hPa Calm   1 mph /  1.6 km/h 96 % 0 in /  0.0 mm
21:32 37.6 °F /  3.1 °C 36.5 °F /  2.5 °C 30.7 in /  1038.5 hPa Calm     96 % 0 in /  0.0 mm
21:37 37.6 °F /  3.1 °C 36.5 °F /  2.5 °C 30.7 in /  1038.5 hPa Calm     96 % 0 in /  0.0 mm
21:42 37.6 °F /  3.1 °C 36.5 °F /  2.5 °C 30.7 in /  1038.5 hPa Calm     96 % 0 in /  0.0 mm
21:47 37.2 °F /  2.9 °C 36.1 °F /  2.3 °C 30.7 in /  1038.1 hPa Calm     96 % 0 in /  0.0 mm
21:52 37.2 °F /  2.9 °C 36.1 °F /  2.3 °C 30.7 in /  1038.1 hPa Calm     96 % 0 in /  0.0 mm
21:57 37 °F /  2.8 °C 36 °F /  2.2 °C 30.7 in /  1038.1 hPa Calm     96 % 0 in /  0.0 mm
22:07 36.7 °F /  2.6 °C 35.6 °F /  2.0 °C 30.7 in /  1038.5 hPa Calm     96 % 0 in /  0.0 mm
22:12 36.3 °F /  2.4 °C 35.2 °F /  1.8 °C 30.7 in /  1038.1 hPa Calm     96 % 0 in /  0.0 mm
22:17 36 °F /  2.2 °C 34.9 °F /  1.6 °C 30.7 in /  1038.1 hPa Calm     96 % 0 in /  0.0 mm
22:22 36 °F /  2.2 °C 34.9 °F /  1.6 °C 30.7 in /  1038.1 hPa Calm     96 % 0 in /  0.0 mm
22:27 36 °F /  2.2 °C 34.9 °F /  1.6 °C 30.7 in /  1038.1 hPa Calm     96 % 0 in /  0.0 mm
22:37 35.4 °F /  1.9 °C 34.3 °F /  1.3 °C 30.7 in /  1038.1 hPa Calm     96 % 0 in /  0.0 mm
22:42 35.2 °F /  1.8 °C 34.2 °F /  1.2 °C 30.7 in /  1038.1 hPa Calm   1 mph /  1.6 km/h 96 % 0 in /  0.0 mm
22:47 35.1 °F /  1.7 °C 34 °F /  1.1 °C 30.7 in /  1038.1 hPa Calm   1 mph /  1.6 km/h 96 % 0 in /  0.0 mm
22:52 35.1 °F /  1.7 °C 34 °F /  1.1 °C 30.7 in /  1038.1 hPa Calm   1 mph /  1.6 km/h 96 % 0 in /  0.0 mm
22:57 34.9 °F /  1.6 °C 34.2 °F /  1.2 °C 30.7 in /  1038.1 hPa Calm   1 mph /  1.6 km/h 97 % 0 in /  0.0 mm
23:02 34.9 °F /  1.6 °C 34.2 °F /  1.2 °C 30.7 in /  1038.1 hPa Calm     97 % 0 in /  0.0 mm
23:12 34.2 °F /  1.2 °C 33.1 °F /  0.6 °C 30.7 in /  1038.1 hPa Calm     96 % 0 in /  0.0 mm
23:17 34.3 °F /  1.3 °C 33.6 °F /  0.9 °C 30.7 in /  1038.1 hPa Calm   1 mph /  1.6 km/h 97 % 0 in /  0.0 mm
23:22 34.2 °F /  1.2 °C 33.4 °F /  0.8 °C 30.7 in /  1038.1 hPa Calm   1 mph /  1.6 km/h 97 % 0 in /  0.0 mm
23:32 33.6 °F /  0.9 °C 32.5 °F /  0.3 °C 30.7 in /  1038.1 hPa Calm     96 % 0 in /  0.0 mm
23:37 34 °F /  1.1 °C 33.3 °F /  0.7 °C 30.7 in /  1038.1 hPa Calm     97 % 0 in /  0.0 mm
23:42 33.6 °F /  0.9 °C 32.9 °F /  0.5 °C 30.7 in /  1038.1 hPa Calm     97 % 0 in /  0.0 mm
23:47 33.6 °F /  0.9 °C 32.9 °F /  0.5 °C 30.7 in /  1038.1 hPa Calm     97 % 0 in /  0.0 mm
23:52 33.4 °F /  0.8 °C 32.4 °F /  0.2 °C 30.7 in /  1038.1 hPa Calm     96 % 0 in /  0.0 mm
23:57 33.1 °F /  0.6 °C 32 °F /  0.0 °C 30.7 in /  1038.1 hPa Calm     96 % 0 in /  0.0 mm
Meteo18
Compliments of Weather Underground - 4 mb

Script developed by  Jim McMurry - jmcmurry@mwt.net Adapted for the template by  Wim van der Kuil - Leuven-Template.eu

You find our weather info also at:

European Weather Network

Weather Underground

Equipment we use:

Weather-station
Davis Vue

Weather-program
Meteohub

Weather-server
Raspberry PI 2 B+

Provider
1 and 1

Davis Vue

Meteohub

Raspberry PI 2 B+

1 and 1